createdAt,value
2023-05-08T00:02:04.798Z,99072.03
2023-05-08T00:04:31.589Z,99073.47
2023-05-08T00:06:58.414Z,99065.44
2023-05-08T00:09:24.993Z,99078.69
2023-05-08T00:11:51.759Z,99087.56
2023-05-08T00:14:18.717Z,99073.31
2023-05-08T00:16:47.000Z,99074.94
2023-05-08T00:19:13.822Z,99072.25
2023-05-08T00:21:40.596Z,99082.38
2023-05-08T00:24:07.380Z,99083.19
2023-05-08T00:26:33.971Z,99080.34
2023-05-08T00:29:00.474Z,99080.97
2023-05-08T00:31:27.069Z,99087.38
2023-05-08T00:33:55.732Z,99078.50
2023-05-08T00:36:23.599Z,99080.13
2023-05-08T00:38:50.093Z,99081.38
2023-05-08T00:41:17.256Z,99078.50
2023-05-08T00:43:43.756Z,99074.59
2023-05-08T00:46:10.593Z,99080.16
2023-05-08T00:48:38.561Z,99083.88
2023-05-08T00:51:09.777Z,99081.63
2023-05-08T00:53:39.793Z,99078.13
2023-05-08T00:56:10.376Z,99088.63
2023-05-08T00:58:37.888Z,99079.53
2023-05-08T01:01:04.669Z,99086.56
2023-05-08T01:03:33.142Z,99081.59
2023-05-08T01:05:59.834Z,99073.94
2023-05-08T01:08:26.273Z,99075.81
2023-05-08T01:11:11.681Z,99085.91
2023-05-08T01:14:00.089Z,99085.28
2023-05-08T01:16:47.803Z,99078.69
2023-05-08T01:19:31.919Z,99091.25
2023-05-08T01:22:38.914Z,99091.88
2023-05-08T01:25:36.867Z,99088.78
2023-05-08T01:28:31.217Z,99094.97
2023-05-08T01:31:27.359Z,99097.03
2023-05-08T01:34:01.435Z,99101.81
2023-05-08T01:36:36.287Z,99101.00
2023-05-08T01:39:20.527Z,99106.34
2023-05-08T01:41:57.159Z,99099.13
2023-05-08T01:44:28.785Z,99108.81
2023-05-08T01:46:55.950Z,99112.13
2023-05-08T01:49:34.752Z,99114.00
2023-05-08T01:52:11.542Z,99123.06
2023-05-08T01:54:48.513Z,99122.47
2023-05-08T01:57:16.962Z,99121.44
2023-05-08T01:59:45.565Z,99135.69
2023-05-08T02:02:13.749Z,99129.06
2023-05-08T02:04:45.514Z,99127.22
2023-05-08T02:07:12.958Z,99129.06
2023-05-08T02:09:45.205Z,99127.63
2023-05-08T02:12:14.537Z,99127.00
2023-05-08T02:14:42.821Z,99129.69
2023-05-08T02:17:12.243Z,99135.06
2023-05-08T02:19:41.031Z,99133.22
2023-05-08T02:22:08.878Z,99128.66
2023-05-08T02:24:38.468Z,99136.31
2023-05-08T02:27:07.226Z,99134.03
2023-05-08T02:29:34.912Z,99131.53
2023-05-08T02:32:03.656Z,99129.91
2023-05-08T02:34:31.997Z,99128.47
2023-05-08T02:37:00.056Z,99131.56
2023-05-08T02:39:30.953Z,99135.91
2023-05-08T02:41:58.301Z,99130.13
2023-05-08T02:44:24.985Z,99137.16
2023-05-08T02:47:19.114Z,99121.66
2023-05-08T02:49:56.831Z,99128.66
2023-05-08T02:52:30.092Z,99128.25
2023-05-08T02:55:12.403Z,99125.78
2023-05-08T02:58:15.833Z,99126.59
2023-05-08T03:01:00.855Z,99128.47
2023-05-08T03:03:37.099Z,99127.22
2023-05-08T03:06:09.670Z,99120.19
2023-05-08T03:08:37.785Z,99114.22
2023-05-08T03:11:11.548Z,99121.66
2023-05-08T03:13:41.190Z,99120.00
2023-05-08T03:16:14.011Z,99120.00
2023-05-08T03:18:51.041Z,99112.97
2023-05-08T03:21:23.727Z,99115.47
2023-05-08T03:23:57.509Z,99114.66
2023-05-08T03:26:24.659Z,99120.00
2023-05-08T03:28:52.426Z,99118.16
2023-05-08T03:31:19.975Z,99119.78
2023-05-08T03:33:48.177Z,99114.66
2023-05-08T03:36:15.686Z,99126.19
2023-05-08T03:38:42.790Z,99120.00
2023-05-08T03:41:10.312Z,99121.44
2023-05-08T03:43:38.073Z,99122.09
2023-05-08T03:46:08.133Z,99128.06
2023-05-08T03:48:35.141Z,99131.56
2023-05-08T03:51:03.255Z,99132.38
2023-05-08T03:53:32.143Z,99134.66
2023-05-08T03:56:00.407Z,99137.34
2023-05-08T03:58:44.309Z,99129.47
2023-05-08T04:01:10.904Z,99138.78
2023-05-08T04:03:56.303Z,99129.91
2023-05-08T04:06:50.097Z,99146.03
2023-05-08T04:09:26.618Z,99136.72
2023-05-08T04:12:03.784Z,99143.53
2023-05-08T04:14:36.863Z,99142.09
2023-05-08T04:17:07.095Z,99151.38
2023-05-08T04:19:39.628Z,99156.53
2023-05-08T04:22:08.541Z,99155.91
2023-05-08T04:24:40.992Z,99159.03
2023-05-08T04:27:10.062Z,99166.69
2023-05-08T04:29:38.242Z,99162.97
2023-05-08T04:32:07.228Z,99159.03
2023-05-08T04:34:34.432Z,99158.84
2023-05-08T04:37:01.970Z,99167.28
2023-05-08T04:39:28.555Z,99170.81
2023-05-08T04:41:55.113Z,99174.09
2023-05-08T04:44:21.874Z,99173.91
2023-05-08T04:46:51.392Z,99179.88
2023-05-08T04:49:20.916Z,99183.19
2023-05-08T04:51:47.513Z,99177.41
2023-05-08T04:54:13.944Z,99176.59
2023-05-08T04:56:40.538Z,99188.56
2023-05-08T04:59:07.648Z,99185.06
2023-05-08T05:01:34.296Z,99184.84
2023-05-08T05:04:00.930Z,99185.25
2023-05-08T05:06:28.388Z,99188.16
2023-05-08T05:08:56.403Z,99195.16
2023-05-08T05:11:23.202Z,99192.28
2023-05-08T05:13:49.820Z,99192.25
2023-05-08T05:16:16.984Z,99203.81
2023-05-08T05:18:47.354Z,99204.00
2023-05-08T05:21:14.536Z,99197.59
2023-05-08T05:23:41.366Z,99202.56
2023-05-08T05:26:09.536Z,99209.41
2023-05-08T05:28:38.732Z,99210.84
2023-05-08T05:31:05.545Z,99215.34
2023-05-08T05:33:32.102Z,99215.34
2023-05-08T05:35:59.135Z,99217.00
2023-05-08T05:38:27.897Z,99216.16
2023-05-08T05:40:55.024Z,99222.31
2023-05-08T05:43:21.731Z,99234.19
2023-05-08T05:45:49.927Z,99238.69
2023-05-08T05:48:16.668Z,99246.56
2023-05-08T05:50:43.465Z,99257.09
2023-05-08T05:53:10.193Z,99264.56
2023-05-08T05:55:36.784Z,99259.59
2023-05-08T05:58:03.459Z,99260.81
2023-05-08T06:00:31.308Z,99261.03
2023-05-08T06:02:58.360Z,99255.84
2023-05-08T06:05:25.223Z,99255.03
2023-05-08T06:07:52.040Z,99263.72
2023-05-08T06:10:19.149Z,99259.78
2023-05-08T06:12:46.106Z,99254.59
2023-05-08T06:15:13.067Z,99257.28
2023-05-08T06:17:40.510Z,99259.56
2023-05-08T06:20:08.196Z,99266.75
2023-05-08T06:22:36.590Z,99274.41
2023-05-08T06:25:03.349Z,99285.53
2023-05-08T06:27:30.259Z,99304.56
2023-05-08T06:29:56.787Z,99309.91
2023-05-08T06:32:24.129Z,99329.53
2023-05-08T06:34:58.461Z,99368.56
2023-05-08T06:37:25.077Z,99412.69
2023-05-08T06:40:03.994Z,99437.13
2023-05-08T06:42:38.064Z,99450.78
2023-05-08T06:45:05.696Z,99456.75
2023-05-08T06:47:32.706Z,99448.91
2023-05-08T06:50:00.459Z,99445.78
2023-05-08T06:52:26.966Z,99457.38
2023-05-08T06:54:53.827Z,99443.13
2023-05-08T06:57:20.473Z,99438.50
2023-05-08T06:59:47.038Z,99445.97
2023-05-08T07:02:14.472Z,99475.31
2023-05-08T07:04:41.395Z,99488.84
2023-05-08T07:07:08.309Z,99475.13
2023-05-08T07:09:34.897Z,99472.44
2023-05-08T07:12:02.739Z,99453.41
2023-05-08T07:14:30.215Z,99471.44
2023-05-08T07:16:57.450Z,99484.03
2023-05-08T07:19:24.042Z,99484.66
2023-05-08T07:21:51.492Z,99499.34
2023-05-08T07:24:18.305Z,99515.59
2023-05-08T07:26:44.861Z,99586.50
2023-05-08T07:29:17.510Z,99590.03
2023-05-08T07:31:44.118Z,99610.72
2023-05-08T07:34:10.685Z,99618.81
2023-05-08T07:36:37.513Z,99595.81
2023-05-08T07:39:04.651Z,99559.41
2023-05-08T07:41:31.979Z,99533.72
2023-05-08T07:43:58.970Z,99563.53
2023-05-08T07:46:28.776Z,99562.28
2023-05-08T07:48:55.953Z,99567.25
2023-05-08T07:51:22.665Z,99573.03
2023-05-08T07:53:49.209Z,99578.00
2023-05-08T07:56:15.893Z,99569.72
2023-05-08T07:58:42.495Z,99551.09
2023-05-08T08:01:09.919Z,99549.88
2023-05-08T08:03:36.501Z,99560.22
2023-05-08T08:06:05.060Z,99573.88
2023-05-08T08:08:31.518Z,99603.66
2023-05-08T08:10:58.572Z,99607.63
2023-05-08T08:13:26.590Z,99642.59
2023-05-08T08:15:55.749Z,99673.88
2023-05-08T08:18:22.280Z,99681.09
2023-05-08T08:20:48.715Z,99675.09
2023-05-08T08:23:16.595Z,99700.59
2023-05-08T08:25:43.249Z,99706.78
2023-05-08T08:28:10.019Z,99729.19
2023-05-08T08:30:36.651Z,99737.56
2023-05-08T08:33:03.311Z,99748.38
2023-05-08T08:35:30.869Z,99744.63
2023-05-08T08:37:57.775Z,99759.25
2023-05-08T08:40:24.710Z,99773.72
2023-05-08T08:42:51.186Z,99765.53
2023-05-08T08:45:17.895Z,99766.13
2023-05-08T08:47:45.691Z,99759.03
2023-05-08T08:50:14.836Z,99766.84
2023-05-08T08:52:52.187Z,99773.88
2023-05-08T08:55:22.342Z,99774.53
2023-05-08T08:57:57.906Z,99766.00
2023-05-08T09:00:29.965Z,99755.28
2023-05-08T09:02:57.117Z,99771.69
2023-05-08T09:05:23.816Z,99777.59
2023-05-08T09:07:54.983Z,99775.00
2023-05-08T09:10:23.245Z,99778.84
2023-05-08T09:12:49.969Z,99760.66
2023-05-08T09:15:18.565Z,99744.56
2023-05-08T09:17:45.216Z,99761.06
2023-05-08T09:20:15.238Z,99735.19
2023-05-08T09:22:45.756Z,99731.78
2023-05-08T09:25:12.609Z,99626.31
2023-05-08T09:27:39.468Z,99641.94
2023-05-08T09:30:08.090Z,99678.53
2023-05-08T09:32:36.859Z,99685.69
2023-05-08T09:35:04.297Z,99703.78
2023-05-08T09:37:30.836Z,99789.22
2023-05-08T09:40:22.945Z,99784.50
2023-05-08T09:42:50.918Z,99729.91
2023-05-08T09:45:31.916Z,99731.06
2023-05-08T09:47:59.421Z,99698.97
2023-05-08T09:50:26.272Z,99703.09
2023-05-08T09:52:52.934Z,99690.00
2023-05-08T09:55:19.690Z,99754.94
2023-05-08T09:58:01.310Z,99776.28
2023-05-08T10:00:29.476Z,99788.63
2023-05-08T10:03:02.379Z,99787.63
2023-05-08T10:05:31.814Z,99782.59
2023-05-08T10:08:03.251Z,99776.34
2023-05-08T10:10:31.070Z,99821.41
2023-05-08T10:12:58.966Z,99828.97
2023-05-08T10:15:29.725Z,99848.94
2023-05-08T10:18:07.182Z,99847.13
2023-05-08T10:20:35.699Z,99795.72
2023-05-08T10:23:05.943Z,99805.31
2023-05-08T10:25:34.431Z,99854.69
2023-05-08T10:28:16.657Z,99874.66
2023-05-08T10:30:47.705Z,99873.34
2023-05-08T10:33:20.623Z,99864.97
2023-05-08T10:35:48.805Z,99902.97
2023-05-08T10:38:17.304Z,99875.81
2023-05-08T10:40:44.926Z,99847.03
2023-05-08T10:43:13.538Z,99855.13
2023-05-08T10:45:40.598Z,99761.34
2023-05-08T10:48:20.349Z,99754.44
2023-05-08T10:50:47.150Z,99765.56
2023-05-08T10:53:29.061Z,99749.31
2023-05-08T10:55:56.379Z,99702.97
2023-05-08T10:58:25.874Z,99766.16
2023-05-08T11:00:52.410Z,99777.00
2023-05-08T11:03:30.543Z,99757.50
2023-05-08T11:06:01.496Z,99670.06
2023-05-08T11:08:30.331Z,99760.84
2023-05-08T11:11:00.338Z,99723.47
2023-05-08T11:13:35.168Z,99859.84
2023-05-08T11:16:02.874Z,99862.13
2023-05-08T11:18:41.811Z,99811.06
2023-05-08T11:21:20.765Z,99851.56
2023-05-08T11:23:57.246Z,99833.75
2023-05-08T11:26:38.912Z,99865.59
2023-05-08T11:29:16.988Z,99828.22
2023-05-08T11:31:51.562Z,99823.34
2023-05-08T11:34:43.664Z,99884.81
2023-05-08T11:37:16.660Z,99877.16
2023-05-08T11:39:43.330Z,99894.19
2023-05-08T11:42:28.698Z,99873.63
2023-05-08T11:45:14.074Z,99846.56
2023-05-08T11:47:43.449Z,99836.13
2023-05-08T11:50:12.287Z,99850.56
2023-05-08T11:52:42.202Z,99864.09
2023-05-08T11:55:11.503Z,99880.69
2023-05-08T11:57:38.347Z,99867.34
2023-05-08T12:00:10.107Z,99850.81
2023-05-08T12:02:41.546Z,99844.66
2023-05-08T12:05:09.857Z,99879.72
2023-05-08T12:07:45.485Z,99925.59
2023-05-08T12:10:16.660Z,99945.47
2023-05-08T12:12:45.172Z,99935.19
2023-05-08T12:15:15.223Z,99853.50
2023-05-08T12:17:43.619Z,99844.25
2023-05-08T12:20:16.507Z,99869.31
2023-05-08T12:22:58.231Z,99841.34
2023-05-08T12:25:33.071Z,99892.91
2023-05-08T12:28:01.165Z,99894.06
2023-05-08T12:30:28.167Z,99867.34
2023-05-08T12:32:55.573Z,99707.44
2023-05-08T12:35:22.270Z,99733.09
2023-05-08T12:37:51.176Z,99700.25
2023-05-08T12:40:29.321Z,99753.59
2023-05-08T12:42:59.948Z,99771.25
2023-05-08T12:45:28.747Z,99801.19
2023-05-08T12:48:01.808Z,99828.03
2023-05-08T12:50:39.941Z,99858.25
2023-05-08T12:53:09.161Z,99764.00
2023-05-08T12:55:39.148Z,99747.72
2023-05-08T12:58:14.737Z,99794.72
2023-05-08T13:00:47.165Z,99817.88
2023-05-08T13:03:22.597Z,99823.72
2023-05-08T13:05:49.120Z,99790.03
2023-05-08T13:08:16.232Z,99780.19
2023-05-08T13:11:04.543Z,99733.09
2023-05-08T13:13:40.368Z,99683.50
2023-05-08T13:16:08.285Z,99701.31
2023-05-08T13:18:36.050Z,99704.03
2023-05-08T13:21:02.877Z,99666.91
2023-05-08T13:23:29.500Z,99604.78
2023-05-08T13:25:56.397Z,99664.75
2023-05-08T13:28:22.982Z,99549.84
2023-05-08T13:30:50.026Z,99643.47
2023-05-08T13:33:17.180Z,99578.69
2023-05-08T13:35:44.050Z,99575.63
2023-05-08T13:38:16.766Z,99573.41
2023-05-08T13:40:43.373Z,99460.28
2023-05-08T13:43:10.082Z,99544.38
2023-05-08T13:45:37.700Z,99519.75
2023-05-08T13:48:04.549Z,99562.88
2023-05-08T13:50:36.402Z,99518.25
2023-05-08T13:53:03.871Z,99575.47
2023-05-08T13:55:30.421Z,99591.25
2023-05-08T13:57:57.949Z,99477.06
2023-05-08T14:00:26.606Z,99468.34
2023-05-08T14:02:56.904Z,99404.94
2023-05-08T14:05:24.368Z,99369.00
2023-05-08T14:07:51.007Z,99381.34
2023-05-08T14:10:17.595Z,99383.63
2023-05-08T14:12:44.123Z,99377.50
2023-05-08T14:15:10.931Z,99385.88
2023-05-08T14:17:40.071Z,99376.16
2023-05-08T14:20:10.318Z,99404.50
2023-05-08T14:22:38.968Z,99414.22
2023-05-08T14:25:06.370Z,99400.28
2023-05-08T14:27:33.046Z,99375.75
2023-05-08T14:29:59.676Z,99316.84
2023-05-08T14:32:26.461Z,99313.88
2023-05-08T14:34:55.724Z,99271.94
2023-05-08T14:37:22.262Z,99264.72
2023-05-08T14:39:49.016Z,99293.41
2023-05-08T14:42:23.234Z,99262.66
2023-05-08T14:44:50.602Z,99258.78
2023-05-08T14:47:19.865Z,99241.50
2023-05-08T14:49:50.402Z,99284.28
2023-05-08T14:52:17.798Z,99305.91
2023-05-08T14:54:44.309Z,99325.19
2023-05-08T14:57:14.190Z,99342.19
2023-05-08T14:59:49.020Z,99325.56
2023-05-08T15:02:21.233Z,99289.56
2023-05-08T15:04:47.835Z,99223.69
2023-05-08T15:07:14.433Z,99262.41
2023-05-08T15:09:42.753Z,99287.41
2023-05-08T15:12:09.409Z,99273.69
2023-05-08T15:14:37.202Z,99324.16
2023-05-08T15:17:03.983Z,99337.31
2023-05-08T15:19:30.456Z,99301.50
2023-05-08T15:21:59.187Z,99307.91
2023-05-08T15:24:25.828Z,99322.47
2023-05-08T15:26:53.429Z,99349.06
2023-05-08T15:29:20.031Z,99288.53
2023-05-08T15:31:46.999Z,99328.47
2023-05-08T15:34:15.391Z,99324.63
2023-05-08T15:36:46.173Z,99377.69
2023-05-08T15:39:13.010Z,99372.00
2023-05-08T15:41:39.791Z,99383.91
2023-05-08T15:44:07.805Z,99393.91
2023-05-08T15:46:34.643Z,99357.22
2023-05-08T15:49:02.783Z,99342.19
2023-05-08T15:51:29.762Z,99385.09
2023-05-08T15:53:56.294Z,99381.06
2023-05-08T15:56:23.159Z,99353.53
2023-05-08T15:58:50.292Z,99388.06
2023-05-08T16:01:17.711Z,99436.28
2023-05-08T16:03:44.429Z,99405.81
2023-05-08T16:06:11.091Z,99421.25
2023-05-08T16:08:40.479Z,99416.28
2023-05-08T16:11:07.319Z,99442.88
2023-05-08T16:13:33.766Z,99412.41
2023-05-08T16:16:07.279Z,99455.34
2023-05-08T16:18:34.153Z,99462.63
2023-05-08T16:21:01.155Z,99461.56
2023-05-08T16:23:27.997Z,99430.06
2023-05-08T16:25:54.580Z,99419.13
2023-05-08T16:28:21.299Z,99441.06
2023-05-08T16:30:50.331Z,99408.75
2023-05-08T16:33:17.325Z,99422.16
2023-05-08T16:35:43.968Z,99454.31
2023-05-08T16:38:10.624Z,99463.41
2023-05-08T16:40:37.450Z,99452.06
2023-05-08T16:43:04.179Z,99475.13
2023-05-08T16:45:34.646Z,99461.19
2023-05-08T16:48:02.004Z,99455.13
2023-05-08T16:50:28.685Z,99463.00
2023-05-08T16:52:55.724Z,99486.31
2023-05-08T16:55:23.029Z,99474.56
2023-05-08T16:57:49.898Z,99496.56
2023-05-08T17:00:16.656Z,99494.88
2023-05-08T17:02:44.356Z,99500.41
2023-05-08T17:05:12.998Z,99479.88
2023-05-08T17:07:39.828Z,99438.44
2023-05-08T17:10:07.120Z,99459.72
2023-05-08T17:12:33.966Z,99480.09
2023-05-08T17:15:00.923Z,99495.13
2023-05-08T17:17:27.790Z,99511.13
2023-05-08T17:19:54.526Z,99518.66
2023-05-08T17:22:21.501Z,99514.16
2023-05-08T17:24:48.416Z,99517.84
2023-05-08T17:27:15.940Z,99515.53
2023-05-08T17:29:44.864Z,99525.72
2023-05-08T17:32:11.717Z,99541.19
2023-05-08T17:34:38.469Z,99533.47
2023-05-08T17:37:05.101Z,99556.78
2023-05-08T17:39:31.718Z,99598.06
2023-05-08T17:41:58.237Z,99610.97
2023-05-08T17:44:25.696Z,99635.09
2023-05-08T17:46:52.239Z,99643.69
2023-05-08T17:49:19.626Z,99647.72
2023-05-08T17:51:47.659Z,99663.91
2023-05-08T17:54:14.227Z,99657.75
2023-05-08T17:56:41.054Z,99668.38
2023-05-08T17:59:15.168Z,99665.84
2023-05-08T18:01:41.898Z,99682.72
2023-05-08T18:04:09.186Z,99693.28
2023-05-08T18:06:35.899Z,99675.22
2023-05-08T18:09:02.431Z,99676.09
2023-05-08T18:11:28.979Z,99664.00
2023-05-08T18:13:57.315Z,99669.88
2023-05-08T18:16:23.958Z,99685.34
2023-05-08T18:18:50.688Z,99690.56
2023-05-08T18:21:17.980Z,99715.69
2023-05-08T18:23:46.217Z,99719.03
2023-05-08T18:26:15.205Z,99739.38
2023-05-08T18:28:42.510Z,99726.31
2023-05-08T18:31:09.282Z,99736.09
2023-05-08T18:33:37.305Z,99772.22
2023-05-08T18:36:04.242Z,99754.81
2023-05-08T18:38:35.303Z,99761.47
2023-05-08T18:41:05.551Z,99757.09
2023-05-08T18:43:47.473Z,99760.63
2023-05-08T18:46:14.446Z,99777.44
2023-05-08T18:48:41.723Z,99778.91
2023-05-08T18:51:08.487Z,99775.78
2023-05-08T18:53:38.034Z,99776.00
2023-05-08T18:56:05.164Z,99788.88
2023-05-08T18:58:32.888Z,99789.28
2023-05-08T19:00:59.547Z,99773.50
2023-05-08T19:03:26.252Z,99780.34
2023-05-08T19:05:55.115Z,99795.50
2023-05-08T19:08:21.866Z,99812.06
2023-05-08T19:10:48.784Z,99830.50
2023-05-08T19:13:15.916Z,99834.84
2023-05-08T19:15:42.732Z,99849.38
2023-05-08T19:18:09.829Z,99896.22
2023-05-08T19:20:36.758Z,99938.88
2023-05-08T19:23:03.633Z,99970.34
2023-05-08T19:25:32.045Z,99983.22
2023-05-08T19:28:00.291Z,99989.19
2023-05-08T19:30:27.867Z,100018.38
2023-05-08T19:32:55.591Z,100029.94
2023-05-08T19:35:22.365Z,100053.28
2023-05-08T19:37:48.920Z,100059.91
2023-05-08T19:40:16.945Z,100061.97
2023-05-08T19:42:50.541Z,100078.31
2023-05-08T19:45:17.265Z,100085.53
2023-05-08T19:47:47.544Z,100081.00
2023-05-08T19:50:20.834Z,100087.63
2023-05-08T19:52:47.566Z,100114.72
2023-05-08T19:55:18.077Z,100125.06
2023-05-08T19:57:46.254Z,100148.63
2023-05-08T20:00:14.122Z,100160.16
2023-05-08T20:02:41.193Z,100181.22
2023-05-08T20:07:37.965Z,99676.53
2023-05-08T20:10:05.974Z,99680.69
2023-05-08T20:12:32.544Z,99684.00
2023-05-08T20:14:59.292Z,99680.28
2023-05-08T20:17:25.831Z,99683.78
2023-05-08T20:19:54.970Z,99689.16
2023-05-08T20:22:21.442Z,99685.88
2023-05-08T20:24:48.893Z,99688.75
2023-05-08T20:27:16.121Z,99686.69
2023-05-08T20:29:42.980Z,99688.09
2023-05-08T20:32:09.580Z,99682.31
2023-05-08T20:34:36.951Z,99684.59
2023-05-08T20:37:03.661Z,99684.94
2023-05-08T20:39:30.221Z,99674.59
2023-05-08T20:41:56.972Z,99664.41
2023-05-08T20:44:23.524Z,99653.06
2023-05-08T20:46:51.290Z,99640.44
2023-05-08T20:49:18.810Z,99625.09
2023-05-08T20:51:45.560Z,99621.38
2023-05-08T20:54:12.339Z,99601.91
2023-05-08T20:56:38.969Z,99601.31
2023-05-08T20:59:06.264Z,99590.56
2023-05-08T21:01:32.848Z,99586.84
2023-05-08T21:03:59.881Z,99596.75
2023-05-08T21:06:26.483Z,99564.69
2023-05-08T21:08:53.004Z,99557.25
2023-05-08T21:11:19.620Z,99548.78
2023-05-08T21:13:46.461Z,99555.59
2023-05-08T21:16:13.500Z,99545.03
2023-05-08T21:18:40.166Z,99542.34
2023-05-08T21:21:20.184Z,99545.84
2023-05-08T21:23:48.674Z,99547.09
2023-05-08T21:26:15.298Z,99545.25
2023-05-08T21:28:42.291Z,99544.81
2023-05-08T21:31:08.883Z,99544.78
2023-05-08T21:33:35.628Z,99530.34
2023-05-08T21:36:03.832Z,99531.34
2023-05-08T21:38:30.491Z,99525.97
2023-05-08T21:40:57.095Z,99523.50
2023-05-08T21:43:25.120Z,99516.47
2023-05-08T21:45:51.693Z,99517.09
2023-05-08T21:48:20.604Z,99514.41
2023-05-08T21:50:47.602Z,99514.81
2023-05-08T21:53:15.022Z,99517.09
2023-05-08T21:55:41.573Z,99522.47
2023-05-08T21:58:08.092Z,99522.28
2023-05-08T22:00:34.866Z,99524.56
2023-05-08T22:03:01.709Z,99527.03
2023-05-08T22:05:28.407Z,99523.72
2023-05-08T22:07:54.824Z,99531.16
2023-05-08T22:10:21.972Z,99520.19
2023-05-08T22:12:48.668Z,99522.88
2023-05-08T22:15:28.287Z,99518.94
2023-05-08T22:17:56.511Z,99528.25
2023-05-08T22:20:23.477Z,99527.19
2023-05-08T22:22:50.185Z,99525.34
2023-05-08T22:25:17.023Z,99525.31
2023-05-08T22:27:44.016Z,99530.06
2023-05-08T22:30:11.141Z,99516.59
2023-05-08T22:32:38.191Z,99514.94
2023-05-08T22:35:05.650Z,99502.97
2023-05-08T22:37:32.557Z,99496.53
2023-05-08T22:39:59.495Z,99491.56
2023-05-08T22:42:26.395Z,99481.25
2023-05-08T22:44:52.997Z,99467.38
2023-05-08T22:47:19.613Z,99453.72
2023-05-08T22:49:46.481Z,99439.47
2023-05-08T22:52:13.321Z,99434.34
2023-05-08T22:54:40.061Z,99429.78
2023-05-08T22:57:06.984Z,99422.34
2023-05-08T22:59:34.187Z,99422.34
2023-05-08T23:02:00.844Z,99417.59
2023-05-08T23:04:28.144Z,99412.66
2023-05-08T23:06:55.237Z,99419.47
2023-05-08T23:09:21.648Z,99423.00
2023-05-08T23:11:48.232Z,99424.44
2023-05-08T23:14:15.068Z,99421.75
2023-05-08T23:16:41.608Z,99416.16
2023-05-08T23:19:10.826Z,99409.94
2023-05-08T23:21:37.485Z,99393.25
2023-05-08T23:24:04.993Z,99387.25
2023-05-08T23:26:31.618Z,99382.06
2023-05-08T23:29:01.133Z,99377.94
2023-05-08T23:31:27.691Z,99369.03
2023-05-08T23:33:54.273Z,99371.25
2023-05-08T23:36:20.953Z,99354.72
2023-05-08T23:38:47.695Z,99354.88
2023-05-08T23:41:14.292Z,99343.72
2023-05-08T23:43:40.842Z,99328.84
2023-05-08T23:46:08.020Z,99321.19
2023-05-08T23:48:34.956Z,99325.53
2023-05-08T23:51:01.787Z,99335.25
2023-05-08T23:53:28.701Z,99353.22
2023-05-08T23:55:55.201Z,99365.59
2023-05-08T23:58:22.013Z,99362.06
